Time;durP1;ratioP1;P1;durP2;ratioP2;P2;SDS_P1;SDS_P2;PMS_P1;PMS_P2;Temp;Humidity;BMP_temperature;BMP_pressure;BME280_temperature;BME280_humidity;BME280_pressure;Samples;Min_cycle;Max_cycle;Signal;HPM_P1;HPM_P2
2021/08/17 00:02:10;;;;;;;;;49.00;38.00;;;;;21.19;47.32;101604.69;5059357;28;45561;-55
2021/08/17 00:04:36;;;;;;;;;29.50;26.00;;;;;21.22;46.97;101607.25;5060730;28;45448;-55
2021/08/17 00:07:03;;;;;;;;;43.75;35.00;;;;;21.23;46.85;101607.19;5060603;28;46980;-54
2021/08/17 00:09:28;;;;;;;;;44.50;37.50;;;;;21.25;46.84;101602.59;5059940;28;45252;-55
2021/08/17 00:11:54;;;;;;;;;47.50;40.00;;;;;21.26;47.13;101603.47;5059746;28;45366;-53
2021/08/17 00:14:19;;;;;;;;;29.75;27.75;;;;;21.25;47.28;101599.00;5050472;28;45500;-55
2021/08/17 00:16:45;;;;;;;;;32.50;30.75;;;;;21.23;47.12;101599.06;5056135;28;47248;-54
2021/08/17 00:19:10;;;;;;;;;20.00;19.50;;;;;21.21;46.95;101592.84;5060266;28;45885;-56
2021/08/17 00:21:37;;;;;;;;;26.25;22.00;;;;;21.17;46.82;101596.69;5042424;28;45569;-54
2021/08/17 00:24:02;;;;;;;;;23.00;23.00;;;;;21.16;46.99;101589.53;5060133;28;45488;-56
2021/08/17 00:26:28;;;;;;;;;22.25;20.50;;;;;21.12;46.90;101593.34;5056257;28;47792;-55
2021/08/17 00:28:53;;;;;;;;;25.50;24.25;;;;;21.10;47.49;101597.97;5058693;28;45979;-55
2021/08/17 00:31:19;;;;;;;;;22.00;19.25;;;;;21.07;47.26;101598.09;5057883;28;45374;-53
2021/08/17 00:33:44;;;;;;;;;18.00;17.25;;;;;21.05;47.55;101592.78;5060108;28;45575;-55
2021/08/17 00:36:10;;;;;;;;;19.00;18.75;;;;;20.99;47.68;101594.94;5059720;28;47759;-54
2021/08/17 00:38:37;;;;;;;;;18.67;17.33;;;;;20.90;47.73;101593.56;5060043;27;45420;-55
2021/08/17 00:41:05;;;;;;;;;18.00;18.00;;;;;20.84;47.96;101591.22;5056592;28;45384;-55
2021/08/17 00:43:31;;;;;;;;;19.00;18.75;;;;;20.78;47.80;101589.66;5043625;28;45716;-54
2021/08/17 00:45:56;;;;;;;;;18.75;18.75;;;;;20.74;48.14;101593.47;5054158;28;45837;-55
2021/08/17 00:48:22;;;;;;;;;18.50;15.00;;;;;20.73;48.54;101593.56;5060066;28;45420;-55
2021/08/17 00:50:47;;;;;;;;;16.00;15.00;;;;;20.72;47.99;101594.50;5092451;27;45635;-56
2021/08/17 00:53:13;;;;;;;;;19.00;16.25;;;;;20.71;48.38;101592.75;5059981;28;45657;-54
2021/08/17 00:55:39;;;;;;;;;21.50;18.75;;;;;20.67;48.70;101589.34;5059796;28;47008;-55
2021/08/17 00:58:04;;;;;;;;;21.50;19.25;;;;;20.60;48.37;101589.72;5060118;28;45385;-54
2021/08/17 01:00:30;;;;;;;;;21.33;16.67;;;;;20.55;48.61;101592.63;5056761;27;47398;-55
2021/08/17 01:02:55;;;;;;;;;19.25;18.00;;;;;20.54;48.55;101588.19;5054965;28;45672;-54
2021/08/17 01:05:26;;;;;;;;;18.25;17.00;;;;;20.52;49.12;101588.28;5059146;27;48168;-55
2021/08/17 01:07:52;;;;;;;;;18.25;18.25;;;;;20.53;48.89;101583.75;5059318;28;45295;-55
2021/08/17 01:10:17;;;;;;;;;19.00;19.00;;;;;20.51;48.77;101580.25;5059471;28;45485;-54
2021/08/17 01:12:43;;;;;;;;;14.33;12.67;;;;;20.52;49.26;101584.69;5057927;28;45264;-54
2021/08/17 01:15:14;;;;;;;;;19.67;17.33;;;;;20.50;48.73;101578.53;5053083;28;47611;-55
2021/08/17 01:17:41;;;;;;;;;14.00;14.00;;;;;20.47;48.78;101578.69;5073152;27;45520;-55
2021/08/17 01:20:13;;;;;;;;;19.25;17.50;;;;;20.46;48.79;101582.31;5059604;28;45639;-55
2021/08/17 01:22:40;;;;;;;;;19.50;16.75;;;;;20.43;49.04;101579.75;5057972;28;45616;-55
2021/08/17 01:25:06;;;;;;;;;14.75;14.75;;;;;20.41;49.65;101587.88;5061750;28;47682;-55
2021/08/17 01:27:32;;;;;;;;;18.00;17.50;;;;;20.41;49.55;101584.31;5058738;28;45909;-55
2021/08/17 01:29:57;;;;;;;;;20.00;17.50;;;;;20.35;49.63;101590.91;5056365;28;45389;-54
2021/08/17 01:32:23;;;;;;;;;17.00;15.00;;;;;20.32;49.57;101590.16;5057948;28;45327;-54
2021/08/17 01:34:48;;;;;;;;;17.25;14.75;;;;;20.28;49.51;101590.31;5053418;28;47163;-56
2021/08/17 01:37:14;;;;;;;;;16.50;15.50;;;;;20.27;49.43;101593.06;5059380;28;45397;-56
2021/08/17 01:39:39;;;;;;;;;13.00;13.00;;;;;20.28;49.43;101598.38;5055080;28;45544;-56
2021/08/17 01:42:05;;;;;;;;;15.33;14.33;;;;;20.28;49.58;101595.69;5058105;28;45625;-55
2021/08/17 01:44:31;;;;;;;;;18.50;17.25;;;;;20.25;49.58;101598.53;5057385;28;47059;-55
2021/08/17 01:46:56;;;;;;;;;9.67;9.00;;;;;20.21;50.01;101594.25;5087906;27;45365;-54
2021/08/17 01:49:22;;;;;;;;;12.00;12.00;;;;;20.21;50.13;101596.09;5058897;28;45662;-55
2021/08/17 01:51:48;;;;;;;;;14.00;12.67;;;;;20.18;50.33;101597.06;5058090;28;45755;-56
2021/08/17 01:54:18;;;;;;;;;16.67;15.33;;;;;20.18;50.21;101596.22;5058652;28;47618;-54
2021/08/17 01:56:44;;;;;;;;;12.33;12.00;;;;;20.16;50.07;101598.97;5046584;28;45343;-54
2021/08/17 01:59:13;;;;;;;;;14.67;14.67;;;;;20.13;50.44;101590.19;5058122;28;45646;-56
2021/08/17 02:01:39;;;;;;;;;12.00;12.00;;;;;20.11;50.07;101582.16;5046551;28;45330;-55
2021/08/17 02:04:04;;;;;;;;;18.00;13.75;;;;;20.11;50.60;101578.59;5058428;28;47464;-55
2021/08/17 02:06:29;;;;;;;;;20.00;15.00;;;;;20.11;50.73;101573.22;5058392;28;45383;-55
2021/08/17 02:08:55;;;;;;;;;18.67;14.67;;;;;20.10;50.22;101574.16;5053576;28;45463;-55
2021/08/17 02:11:21;;;;;;;;;15.67;14.00;;;;;20.10;50.49;101576.84;5058021;28;45364;-56
2021/08/17 02:13:47;;;;;;;;;18.00;17.00;;;;;20.10;50.69;101574.16;5052282;28;47046;-55
2021/08/17 02:16:12;;;;;;;;;11.67;11.67;;;;;20.10;50.53;101574.16;5058117;28;45488;-55
2021/08/17 02:18:38;;;;;;;;;14.00;11.67;;;;;20.08;50.78;101565.28;5045916;28;45421;-55
2021/08/17 02:21:04;;;;;;;;;17.25;15.50;;;;;20.09;50.30;101572.41;5058628;28;45550;-55
2021/08/17 02:23:30;;;;;;;;;14.25;13.25;;;;;20.06;50.33;101570.72;5056802;28;47193;-55
2021/08/17 02:25:56;;;;;;;;;18.75;16.00;;;;;20.05;50.50;101573.47;5050343;28;45561;-55
2021/08/17 02:28:22;;;;;;;;;12.67;12.67;;;;;20.02;50.83;101574.50;5058531;28;45894;-55
2021/08/17 02:30:48;;;;;;;;;14.00;12.67;;;;;20.00;50.85;101568.31;5057899;28;45315;-55
2021/08/17 02:33:14;;;;;;;;;16.33;13.67;;;;;19.99;51.12;101578.22;5045746;28;47909;-56
2021/08/17 02:35:41;;;;;;;;;12.67;11.00;;;;;19.96;50.50;101578.38;5058355;28;45398;-56
2021/08/17 02:38:07;;;;;;;;;14.00;14.00;;;;;19.93;51.19;101567.72;5058358;28;45490;-55
2021/08/17 02:40:33;;;;;;;;;12.50;12.50;;;;;19.92;51.11;101567.81;5044699;28;45425;-55
2021/08/17 02:42:59;;;;;;;;;17.33;15.00;;;;;19.89;51.10;101571.53;5057274;28;46139;-55
2021/08/17 02:45:24;;;;;;;;;11.67;11.67;;;;;19.88;50.71;101572.47;5057794;28;45953;-55
2021/08/17 02:47:55;;;;;;;;;17.25;13.50;;;;;19.87;50.73;101575.25;5056793;28;45710;-54
2021/08/17 02:50:20;;;;;;;;;15.50;14.25;;;;;19.85;51.06;101572.63;5058364;28;45584;-56
2021/08/17 02:52:45;;;;;;;;;12.67;12.67;;;;;19.85;50.92;101579.81;5056294;28;47179;-54
2021/08/17 02:55:12;;;;;;;;;15.50;15.25;;;;;19.85;51.39;101579.81;5057990;28;45481;-56
2021/08/17 02:57:49;;;;;;;;;10.67;10.67;;;;;19.82;51.36;101571.88;5060474;28;45336;-55
2021/08/17 03:00:15;;;;;;;;;15.33;11.33;;;;;19.79;51.37;101580.97;5060954;28;45444;-55
2021/08/17 03:02:41;;;;;;;;;13.00;12.00;;;;;19.76;51.25;101570.34;5057683;28;47221;-56
2021/08/17 03:05:07;;;;;;;;;9.75;9.25;;;;;19.74;51.41;101574.94;5061591;27;45307;-55
2021/08/17 03:07:32;;;;;;;;;10.33;10.00;;;;;19.72;51.54;101573.25;5048660;28;45342;-55
2021/08/17 03:09:58;;;;;;;;;16.33;15.00;;;;;19.68;51.56;101565.31;5057848;28;45334;-52
2021/08/17 03:12:23;;;;;;;;;13.00;11.00;;;;;19.66;51.24;101569.88;5061308;28;47227;-55
2021/08/17 03:14:48;;;;;;;;;12.67;12.33;;;;;19.67;51.32;101570.75;5061053;28;45291;-56
2021/08/17 03:17:14;;;;;;;;;14.00;12.50;;;;;19.65;51.39;101572.66;5057630;28;45360;-55
2021/08/17 03:19:39;;;;;;;;;15.50;13.25;;;;;19.64;51.35;101570.91;5061499;28;45413;-55
2021/08/17 03:22:06;;;;;;;;;12.75;11.50;;;;;19.62;51.55;101579.06;5061133;28;48147;-55
2021/08/17 03:24:31;;;;;;;;;13.75;13.75;;;;;19.60;51.98;101562.09;5060883;28;45477;-55
2021/08/17 03:26:57;;;;;;;;;14.50;14.25;;;;;19.59;51.53;101567.56;5086364;27;45397;-55
2021/08/17 03:29:22;;;;;;;;;13.75;13.75;;;;;19.58;51.83;101561.31;5087455;27;45558;-54
2021/08/17 03:31:48;;;;;;;;;14.00;14.00;;;;;19.56;51.92;101555.09;5071805;28;47179;-55
2021/08/17 03:34:13;;;;;;;;;13.75;13.50;;;;;19.55;51.76;101564.13;5044040;28;45897;-55
2021/08/17 03:36:39;;;;;;;;;14.50;12.00;;;;;19.54;51.82;101564.16;5061556;28;45306;-55
2021/08/17 03:39:04;;;;;;;;;13.75;13.75;;;;;19.52;51.84;101564.22;5077101;28;45444;-55
2021/08/17 03:41:30;;;;;;;;;16.25;15.75;;;;;19.53;52.00;101570.47;5060996;28;47485;-54
2021/08/17 03:43:56;;;;;;;;;15.50;13.00;;;;;19.51;51.88;101565.19;5061149;28;45361;-53
2021/08/17 03:46:22;;;;;;;;;15.75;15.25;;;;;19.50;51.95;101567.94;5060799;28;45314;-54
2021/08/17 03:48:47;;;;;;;;;14.75;12.00;;;;;19.47;51.93;101562.69;5061240;28;45754;-60
2021/08/17 03:51:13;;;;;;;;;14.00;14.00;;;;;19.46;52.01;101558.25;5057723;28;47072;-55
2021/08/17 03:53:38;;;;;;;;;14.00;13.33;;;;;19.45;52.27;101565.47;5061529;28;45303;-55
2021/08/17 03:56:04;;;;;;;;;16.00;13.75;;;;;19.45;52.09;101560.09;5061193;28;45293;-57
2021/08/17 03:58:30;;;;;;;;;14.00;14.00;;;;;19.44;52.01;101565.50;5059780;28;45722;-55
2021/08/17 04:00:55;;;;;;;;;15.25;14.50;;;;;19.43;52.27;101561.94;5056862;28;45600;-54
2021/08/17 04:03:20;;;;;;;;;14.25;12.50;;;;;19.41;52.23;101569.22;5051711;28;45283;-54
2021/08/17 04:05:46;;;;;;;;;16.25;15.25;;;;;19.39;52.13;101569.28;5061178;28;45910;-54
2021/08/17 04:08:11;;;;;;;;;12.50;11.25;;;;;19.37;52.17;101571.19;5066042;28;45413;-55
2021/08/17 04:10:38;;;;;;;;;11.50;11.25;;;;;19.36;52.25;101571.25;5060339;28;45291;-55
2021/08/17 04:13:04;;;;;;;;;14.50;13.75;;;;;19.34;52.19;101563.25;5060765;28;45629;-54
2021/08/17 04:15:29;;;;;;;;;13.25;11.75;;;;;19.34;52.49;101565.06;5057386;28;45884;-54
2021/08/17 04:17:55;;;;;;;;;13.50;12.75;;;;;19.34;52.31;101563.25;5083887;27;45269;-55
2021/08/17 04:20:20;;;;;;;;;15.25;12.50;;;;;19.34;52.38;101560.56;5084263;27;47099;-55
2021/08/17 04:22:46;;;;;;;;;12.33;11.67;;;;;19.34;52.67;101562.38;5059996;28;45842;-57
2021/08/17 04:25:11;;;;;;;;;15.00;12.00;;;;;19.34;52.54;101554.31;5050350;28;45472;-55
2021/08/17 04:27:37;;;;;;;;;14.00;13.00;;;;;19.33;52.72;101553.44;5058456;28;45279;-55
2021/08/17 04:30:06;;;;;;;;;10.67;10.67;;;;;19.31;52.54;101554.41;5060872;28;45937;-55
2021/08/17 04:32:31;;;;;;;;;16.33;14.00;;;;;19.29;53.01;101556.31;5058267;28;45361;-55
2021/08/17 04:34:57;;;;;;;;;12.33;12.00;;;;;19.27;52.53;101552.81;5060596;28;45309;-55
2021/08/17 04:37:23;;;;;;;;;10.33;8.67;;;;;19.23;52.58;101559.28;5060202;28;45446;-54
2021/08/17 04:39:48;;;;;;;;;11.33;10.00;;;;;19.20;53.01;101554.91;5053089;28;47224;-55
2021/08/17 04:42:14;;;;;;;;;11.00;10.00;;;;;19.22;52.88;101552.16;5052967;28;45871;-55
2021/08/17 04:44:40;;;;;;;;;11.33;11.00;;;;;19.19;52.81;101555.88;5060305;28;45410;-55
2021/08/17 04:47:05;;;;;;;;;13.50;12.75;;;;;19.19;52.94;101555.00;5060178;28;45568;-55
2021/08/17 04:49:31;;;;;;;;;13.50;13.25;;;;;19.18;53.30;101562.16;5092737;27;46071;-55
2021/08/17 04:51:57;;;;;;;;;15.50;14.00;;;;;19.21;52.92;101558.50;5060326;28;45337;-55
2021/08/17 04:54:23;;;;;;;;;12.25;11.25;;;;;19.22;52.82;101557.53;5060232;28;45294;-55
2021/08/17 04:56:49;;;;;;;;;12.00;11.00;;;;;19.21;53.21;101551.28;5059922;28;45324;-55
2021/08/17 04:59:15;;;;;;;;;11.00;11.00;;;;;19.21;52.79;101555.78;5049792;28;47167;-55
2021/08/17 05:01:40;;;;;;;;;13.33;11.67;;;;;19.21;52.91;101558.50;5054169;28;45934;-55
2021/08/17 05:04:08;;;;;;;;;15.75;13.50;;;;;19.18;53.01;101555.91;5059118;28;45707;-55
2021/08/17 05:06:34;;;;;;;;;9.00;8.67;;;;;19.18;53.17;101553.22;5056106;28;45874;-55
2021/08/17 05:09:00;;;;;;;;;15.50;12.75;;;;;19.16;52.96;101558.66;5059118;28;47293;-55
2021/08/17 05:11:25;;;;;;;;;16.00;14.75;;;;;19.17;52.93;101559.53;5057625;28;45462;-58
2021/08/17 05:13:51;;;;;;;;;12.33;10.33;;;;;19.17;53.03;101556.84;5060429;28;45287;-52
2021/08/17 05:16:16;;;;;;;;;12.00;12.00;;;;;19.19;53.25;101563.06;5058131;28;45398;-55
2021/08/17 05:18:42;;;;;;;;;11.75;11.75;;;;;19.21;53.07;101566.56;5058921;28;46110;-55
2021/08/17 05:21:07;;;;;;;;;10.50;10.25;;;;;19.22;53.09;101568.31;5057495;28;45719;-56
2021/08/17 05:23:33;;;;;;;;;12.75;12.75;;;;;19.21;53.41;101569.25;5072095;27;45405;-54
2021/08/17 05:25:58;;;;;;;;;17.25;12.75;;;;;19.14;53.25;101574.00;5059552;28;45521;-56
2021/08/17 05:28:24;;;;;;;;;12.25;9.75;;;;;19.11;53.60;101572.34;5056868;28;45462;-55
2021/08/17 05:30:50;;;;;;;;;12.00;11.00;;;;;19.11;53.54;101575.03;5058966;28;45435;-55
2021/08/17 05:33:15;;;;;;;;;13.25;13.25;;;;;19.14;53.39;101573.13;5055474;28;45515;-54
2021/08/17 05:35:43;;;;;;;;;17.00;15.33;;;;;19.18;53.62;101585.50;5059939;28;45555;-55
2021/08/17 05:38:08;;;;;;;;;14.00;14.00;;;;;19.15;53.37;101583.81;5059671;28;47155;-55
2021/08/17 05:40:34;;;;;;;;;11.00;11.00;;;;;19.16;53.56;101585.56;5074354;27;45419;-54
2021/08/17 05:42:59;;;;;;;;;16.25;13.25;;;;;19.21;53.50;101597.03;5058784;28;45687;-54
2021/08/17 05:45:25;;;;;;;;;13.25;12.75;;;;;19.21;53.72;101594.34;5057143;28;45523;-56
2021/08/17 05:47:50;;;;;;;;;14.25;13.25;;;;;19.24;53.41;101593.31;5059888;28;47209;-54
2021/08/17 05:50:17;;;;;;;;;12.50;12.50;;;;;19.25;53.40;101587.88;5053182;28;45534;-53
2021/08/17 05:52:43;;;;;;;;;16.50;15.25;;;;;19.25;53.50;101595.06;5050972;28;45370;-55
2021/08/17 05:55:09;;;;;;;;;17.00;15.00;;;;;19.29;53.61;101593.97;5068076;28;45360;-54
2021/08/17 05:57:35;;;;;;;;;13.50;12.50;;;;;19.32;53.34;101589.38;5058530;28;47367;-55
2021/08/17 06:00:06;;;;;;;;;14.75;13.00;;;;;19.33;53.45;101596.50;5072857;27;45424;-55
2021/08/17 06:02:32;;;;;;;;;17.00;14.75;;;;;19.35;53.52;101593.72;5070622;27;45457;-55
2021/08/17 06:04:57;;;;;;;;;15.25;13.50;;;;;19.37;53.51;101591.84;5073172;28;45382;-55
2021/08/17 06:07:23;;;;;;;;;14.75;12.50;;;;;19.38;53.47;101604.34;5053186;27;47311;-55
2021/08/17 06:09:48;;;;;;;;;11.50;10.75;;;;;19.39;53.15;101595.34;5072773;28;45887;-54
2021/08/17 06:12:14;;;;;;;;;13.25;11.00;;;;;19.40;53.22;101599.78;5070703;27;45264;-55
2021/08/17 06:14:41;;;;;;;;;14.50;13.50;;;;;19.40;53.32;101603.34;5071847;28;45423;-54
2021/08/17 06:17:07;;;;;;;;;16.00;14.00;;;;;19.43;53.39;101605.00;5063563;28;47466;-56
2021/08/17 06:19:33;;;;;;;;;13.75;13.75;;;;;19.44;53.61;101609.47;5054669;28;45293;-54
2021/08/17 06:21:58;;;;;;;;;11.00;11.00;;;;;19.43;53.55;101602.31;5079601;27;45435;-55
2021/08/17 06:24:24;;;;;;;;;13.75;13.50;;;;;19.44;53.25;101604.09;5065741;28;45385;-56
2021/08/17 06:26:49;;;;;;;;;15.00;13.75;;;;;19.45;53.61;101604.97;5069590;27;47894;-55
2021/08/17 06:29:15;;;;;;;;;18.25;15.00;;;;;19.47;53.53;101613.84;5073221;28;45275;-55
2021/08/17 06:31:41;;;;;;;;;15.25;13.00;;;;;19.48;53.51;101611.09;5060988;27;45818;-56
2021/08/17 06:34:06;;;;;;;;;16.00;13.75;;;;;19.51;53.51;101605.56;5072247;28;45345;-55
2021/08/17 06:36:32;;;;;;;;;15.25;14.50;;;;;19.51;53.59;101602.00;5062675;27;47981;-56
2021/08/17 06:38:57;;;;;;;;;14.50;14.00;;;;;19.52;53.63;101610.00;5070564;28;45299;-55
2021/08/17 06:41:23;;;;;;;;;15.00;11.75;;;;;19.53;53.94;101610.88;5052066;28;45355;-56
2021/08/17 06:43:48;;;;;;;;;10.33;10.33;;;;;19.54;53.60;101610.78;5057696;28;45571;-56
2021/08/17 06:46:14;;;;;;;;;12.50;11.75;;;;;19.54;53.37;101609.94;5055581;28;46105;-56
2021/08/17 06:48:40;;;;;;;;;12.67;9.00;;;;;19.55;53.39;101615.28;5057717;28;45622;-56
2021/08/17 06:51:08;;;;;;;;;12.67;12.67;;;;;19.55;53.67;101617.09;5057854;28;45412;-55
2021/08/17 06:53:33;;;;;;;;;12.67;10.33;;;;;19.51;53.74;101616.31;5054240;28;45573;-56
2021/08/17 06:55:58;;;;;;;;;13.25;12.50;;;;;19.49;53.70;101606.56;5059845;28;47164;-56
2021/08/17 06:58:24;;;;;;;;;11.75;11.75;;;;;19.46;53.46;101612.09;5053371;28;45524;-56
2021/08/17 07:00:49;;;;;;;;;13.00;13.00;;;;;19.46;53.93;101609.41;5054828;28;45822;-56
2021/08/17 07:03:15;;;;;;;;;14.25;12.00;;;;;19.45;54.02;101607.66;5056329;28;45575;-55
2021/08/17 07:05:43;;;;;;;;;16.00;11.25;;;;;19.47;53.71;101605.78;5055028;28;47514;-55
2021/08/17 07:08:10;;;;;;;;;11.25;11.25;;;;;19.51;53.89;101602.88;5055877;28;45717;-56
2021/08/17 07:10:37;;;;;;;;;14.25;11.50;;;;;19.57;53.78;101609.84;5056672;28;45366;-58
2021/08/17 07:13:03;;;;;;;;;15.25;11.50;;;;;19.61;53.95;101608.75;5057451;28;45387;-54
2021/08/17 07:15:29;;;;;;;;;13.33;13.00;;;;;19.66;54.27;101604.91;5052949;28;48166;-55
2021/08/17 07:17:54;;;;;;;;;11.25;11.25;;;;;19.72;53.86;101605.56;5053061;28;45453;-54
2021/08/17 07:20:21;;;;;;;;;13.00;12.00;;;;;19.79;54.16;101604.34;5055159;28;45538;-53
2021/08/17 07:22:46;;;;;;;;;16.75;13.25;;;;;19.86;53.83;101606.69;5051460;28;45360;-54
2021/08/17 07:25:12;;;;;;;;;14.00;13.00;;;;;19.91;53.67;101610.03;5056746;28;47352;-50
2021/08/17 07:27:38;;;;;;;;;14.50;14.25;;;;;19.95;53.73;101618.88;5054575;28;46016;-55
2021/08/17 07:30:06;;;;;;;;;14.75;14.75;;;;;19.98;53.56;101624.09;5056716;28;45480;-53
2021/08/17 07:32:32;;;;;;;;;15.00;11.25;;;;;20.00;53.11;101619.53;5056003;28;45318;-52
2021/08/17 07:34:57;;;;;;;;;13.25;13.00;;;;;20.02;52.97;101622.13;5056391;28;47374;-55
2021/08/17 07:37:23;;;;;;;;;11.00;11.00;;;;;20.03;53.63;101613.97;5056956;28;45473;-55
2021/08/17 07:39:49;;;;;;;;;11.75;11.75;;;;;20.04;53.53;101609.47;5056453;28;45672;-55
2021/08/17 07:42:14;;;;;;;;;18.50;15.50;;;;;20.07;53.50;101618.25;5058886;28;45789;-53
2021/08/17 07:44:40;;;;;;;;;13.25;12.25;;;;;20.10;53.39;101618.16;5060775;28;47317;-55
2021/08/17 07:47:05;;;;;;;;;14.75;13.75;;;;;20.12;52.94;101618.94;5061069;28;45776;-54
2021/08/17 07:49:31;;;;;;;;;17.25;15.75;;;;;20.13;53.16;101620.69;5058697;28;45428;-53
2021/08/17 07:51:56;;;;;;;;;14.00;12.75;;;;;20.17;53.34;101621.41;5061068;28;45945;-54
2021/08/17 07:54:22;;;;;;;;;11.75;10.00;;;;;20.18;53.07;101624.03;5059557;28;48027;-55
2021/08/17 07:56:48;;;;;;;;;11.75;11.75;;;;;20.19;53.03;101615.00;5057278;28;45270;-51
2021/08/17 07:59:14;;;;;;;;;12.00;10.50;;;;;20.21;52.94;101623.03;5060252;28;45409;-53
2021/08/17 08:01:39;;;;;;;;;18.00;16.50;;;;;20.23;53.30;101613.94;5052206;28;45414;-52
2021/08/17 08:04:05;;;;;;;;;14.75;13.75;;;;;20.27;53.29;101626.28;5061109;28;46302;-54
2021/08/17 08:06:30;;;;;;;;;13.50;11.25;;;;;20.31;52.93;101623.44;5067475;28;46111;-55
2021/08/17 08:08:56;;;;;;;;;11.00;11.00;;;;;20.34;52.88;101615.25;5061614;28;45509;-57
2021/08/17 08:11:22;;;;;;;;;9.75;9.25;;;;;20.37;53.37;101621.34;5062014;28;45434;-55
2021/08/17 08:13:47;;;;;;;;;10.00;9.67;;;;;20.41;53.27;101620.25;5056600;28;48100;-53
2021/08/17 08:16:13;;;;;;;;;11.75;11.50;;;;;20.46;53.17;101622.78;5058716;28;45501;-54
2021/08/17 08:18:38;;;;;;;;;10.25;9.00;;;;;20.47;52.89;101629.91;5057397;28;45519;-56
2021/08/17 08:21:04;;;;;;;;;10.50;10.50;;;;;20.50;53.04;101625.22;5058556;28;45646;-51
2021/08/17 08:23:29;;;;;;;;;11.00;9.33;;;;;20.54;53.01;101625.94;5056394;28;48152;-54
2021/08/17 08:25:55;;;;;;;;;11.25;9.75;;;;;20.63;53.22;101621.94;5060081;28;45444;-56
2021/08/17 08:28:20;;;;;;;;;11.00;10.50;;;;;20.75;52.87;101619.50;5060204;28;45659;-55
2021/08/17 08:30:46;;;;;;;;;13.00;11.00;;;;;20.88;52.97;101625.16;5057075;28;45451;-54
2021/08/17 08:33:11;;;;;;;;;9.00;8.25;;;;;20.99;52.73;101628.19;5051881;28;48314;-54
2021/08/17 08:35:37;;;;;;;;;9.50;9.00;;;;;21.08;52.37;101624.13;5059517;28;45354;-55
2021/08/17 08:38:03;;;;;;;;;13.50;12.00;;;;;21.18;52.22;101625.41;5068833;28;45224;-55
2021/08/17 08:40:29;;;;;;;;;10.50;10.00;;;;;21.27;51.88;101621.41;5058657;28;45803;-53
2021/08/17 08:42:55;;;;;;;;;9.00;9.00;;;;;21.39;51.45;101628.88;5053268;28;48327;-55
2021/08/17 08:45:21;;;;;;;;;10.00;10.00;;;;;21.48;51.66;101625.69;5060000;28;45501;-52
2021/08/17 08:47:47;;;;;;;;;8.67;8.67;;;;;21.56;51.18;101628.84;5050494;28;45405;-55
2021/08/17 08:50:14;;;;;;;;;9.50;9.50;;;;;21.65;51.14;101632.91;5057856;28;45487;-54
2021/08/17 08:52:42;;;;;;;;;8.33;8.33;;;;;21.76;51.64;101633.19;5057035;28;47098;-55
2021/08/17 08:55:10;;;;;;;;;7.67;7.67;;;;;21.86;51.25;101631.75;5059407;28;45527;-54
2021/08/17 08:57:37;;;;;;;;;8.33;8.33;;;;;21.91;50.80;101639.59;5058052;28;45744;-56
2021/08/17 09:00:05;;;;;;;;;11.00;10.67;;;;;21.94;50.77;101636.72;5058339;28;45392;-53
2021/08/17 09:02:32;;;;;;;;;8.50;8.50;;;;;21.94;50.33;101634.03;5057178;28;48026;-53
2021/08/17 09:04:59;;;;;;;;;9.00;7.25;;;;;21.93;50.48;101632.28;5056844;28;45403;-55
2021/08/17 09:07:42;;;;;;;;;13.00;9.00;;;;;21.94;50.74;101629.47;5056022;28;45353;-54
2021/08/17 09:10:14;;;;;;;;;12.00;12.00;;;;;21.98;50.29;101616.69;5085155;27;45446;-55
2021/08/17 09:12:42;;;;;;;;;9.50;9.00;;;;;22.00;50.04;101628.28;5056859;28;47848;-55
2021/08/17 09:15:20;;;;;;;;;11.00;10.00;;;;;22.03;49.59;101633.53;5061334;28;45839;-55
2021/08/17 09:18:02;;;;;;;;;10.00;10.00;;;;;22.08;49.94;101620.66;5060956;28;45369;-54
2021/08/17 09:20:43;;;;;;;;;11.50;10.00;;;;;22.16;49.64;101625.66;5059714;28;45542;-55
2021/08/17 09:23:26;;;;;;;;;10.25;10.25;;;;;22.24;49.90;101618.88;5059073;27;46969;-55
2021/08/17 09:25:59;;;;;;;;;9.00;9.00;;;;;22.29;49.79;101616.75;5064632;28;45522;-54
2021/08/17 09:28:34;;;;;;;;;10.00;8.00;;;;;22.33;49.34;101617.44;5066945;28;45919;-55
2021/08/17 09:31:03;;;;;;;;;10.00;10.00;;;;;22.37;48.98;101616.34;5054070;28;45544;-56
2021/08/17 09:33:36;;;;;;;;;8.25;8.25;;;;;22.38;49.41;101612.66;5059714;28;48485;-56
2021/08/17 09:36:03;;;;;;;;;9.75;9.00;;;;;22.42;48.52;101608.81;5060064;28;45448;-55
2021/08/17 09:38:33;;;;;;;;;10.50;9.75;;;;;22.47;49.10;101601.31;5063146;28;45816;-56
2021/08/17 09:41:16;;;;;;;;;8.50;7.50;;;;;22.50;48.90;101600.28;5064170;28;46268;-56
2021/08/17 09:44:00;;;;;;;;;9.50;9.00;;;;;22.46;48.65;101606.81;5051239;28;47182;-56
2021/08/17 09:46:28;;;;;;;;;7.25;7.25;;;;;22.40;48.66;101605.34;5057509;28;46171;-56
2021/08/17 09:48:55;;;;;;;;;9.00;8.75;;;;;22.39;47.94;101608.13;5056937;28;45532;-55
2021/08/17 09:51:34;;;;;;;;;12.50;10.75;;;;;22.39;47.84;101600.88;5058157;28;45627;-55
2021/08/17 09:54:14;;;;;;;;;7.75;7.25;;;;;22.36;48.12;101606.47;5057105;28;45509;-55
2021/08/17 09:56:41;;;;;;;;;8.00;8.00;;;;;22.34;48.29;101602.97;5057445;28;45280;-56
2021/08/17 09:59:07;;;;;;;;;11.25;10.00;;;;;22.35;48.45;101606.53;5049739;27;45466;-55
2021/08/17 10:01:33;;;;;;;;;12.25;9.75;;;;;22.37;48.29;101602.81;5057825;28;45518;-55
2021/08/17 10:03:59;;;;;;;;;9.00;9.00;;;;;22.38;47.82;101601.84;5058195;28;48662;-56
2021/08/17 10:06:26;;;;;;;;;7.00;7.00;;;;;22.38;47.95;101603.69;5049438;28;45721;-55
2021/08/17 10:08:55;;;;;;;;;9.00;7.75;;;;;22.38;47.75;101598.28;5056893;28;45413;-57
2021/08/17 10:11:20;;;;;;;;;9.75;9.00;;;;;22.39;48.28;101600.88;5057188;28;45517;-56
2021/08/17 10:13:46;;;;;;;;;8.25;8.25;;;;;22.44;47.77;101601.50;5058835;28;45423;-56
2021/08/17 10:16:18;;;;;;;;;10.00;8.75;;;;;22.40;48.08;101599.94;5059605;28;46079;-56
2021/08/17 10:18:45;;;;;;;;;9.00;8.75;;;;;22.33;48.07;101593.09;5056670;28;45427;-55
2021/08/17 10:21:15;;;;;;;;;7.75;7.75;;;;;22.26;47.71;101589.03;5061491;28;45435;-57
2021/08/17 10:23:44;;;;;;;;;9.75;7.00;;;;;22.24;48.12;101588.25;5063842;27;46964;-56
2021/08/17 10:26:26;;;;;;;;;11.25;9.50;;;;;22.30;48.24;101587.88;5056269;28;45571;-55
2021/08/17 10:28:51;;;;;;;;;8.50;8.00;;;;;22.39;47.95;101587.38;5057531;28;45601;-57
2021/08/17 10:31:18;;;;;;;;;10.75;10.75;;;;;22.47;47.96;101582.38;5060065;28;45581;-57
2021/08/17 10:33:50;;;;;;;;;8.33;7.33;;;;;22.58;47.10;101571.81;5057739;28;48327;-57
2021/08/17 10:36:32;;;;;;;;;11.75;9.75;;;;;22.66;46.85;101578.63;5057719;28;45534;-56
2021/08/17 10:38:59;;;;;;;;;12.50;9.50;;;;;22.71;46.75;101573.78;5050984;28;45416;-55
2021/08/17 10:41:27;;;;;;;;;11.00;11.00;;;;;22.73;46.88;101571.88;5057694;28;45910;-57
2021/08/17 10:43:53;;;;;;;;;15.25;12.75;;;;;22.74;46.80;101566.38;5066766;27;45458;-56
2021/08/17 10:46:38;;;;;;;;;15.25;14.25;;;;;22.84;46.52;101569.44;5061942;28;45314;-57
2021/08/17 10:49:04;;;;;;;;;13.50;11.25;;;;;22.92;46.42;101566.28;5061891;28;45690;-56
2021/08/17 10:51:30;;;;;;;;;9.25;9.25;;;;;22.99;45.93;101560.38;5077187;27;45749;-56
2021/08/17 10:54:06;;;;;;;;;9.00;9.00;;;;;23.06;46.17;101558.19;5061974;28;48102;-54
2021/08/17 10:56:33;;;;;;;;;17.25;14.50;;;;;23.15;45.89;101557.66;5060046;28;45741;-55
2021/08/17 10:59:00;;;;;;;;;11.75;11.00;;;;;23.25;46.13;101563.34;5068298;27;45434;-56
2021/08/17 11:01:35;;;;;;;;;9.50;9.50;;;;;23.33;45.57;101561.91;5071063;28;45641;-57
2021/08/17 11:04:11;;;;;;;;;9.75;9.75;;;;;23.36;45.24;101558.16;5057418;28;48310;-56
2021/08/17 11:06:39;;;;;;;;;12.00;12.00;;;;;23.39;45.24;101564.28;5058274;28;46549;-56
2021/08/17 11:09:17;;;;;;;;;7.25;7.00;;;;;23.36;44.90;101556.31;5067072;28;45502;-56
2021/08/17 11:11:47;;;;;;;;;10.25;9.50;;;;;23.33;44.85;101552.94;5055622;28;45512;-55